sensor_id;sensor_type;location;lat;lon;timestamp;temperature;humidity
76239;SHT30;65043;48.392;-4.472;2023-07-31T00:22:42;19.93;78.23
76239;SHT30;65043;48.392;-4.472;2023-07-31T00:25:21;19.93;78.36
76239;SHT30;65043;48.392;-4.472;2023-07-31T00:28:37;19.92;78.30
76239;SHT30;65043;48.392;-4.472;2023-07-31T00:48:45;19.82;78.90
76239;SHT30;65043;48.392;-4.472;2023-07-31T00:58:57;19.85;79.11
76239;SHT30;65043;48.392;-4.472;2023-07-31T01:01:49;19.85;79.18
76239;SHT30;65043;48.392;-4.472;2023-07-31T01:07:50;19.81;79.88
76239;SHT30;65043;48.392;-4.472;2023-07-31T01:11:03;19.82;80.04
76239;SHT30;65043;48.392;-4.472;2023-07-31T01:17:10;19.88;79.58
76239;SHT30;65043;48.392;-4.472;2023-07-31T01:33:44;19.76;80.74
76239;SHT30;65043;48.392;-4.472;2023-07-31T01:42:46;19.78;80.85
76239;SHT30;65043;48.392;-4.472;2023-07-31T01:52:39;19.79;80.97
76239;SHT30;65043;48.392;-4.472;2023-07-31T01:55:31;19.81;80.98
76239;SHT30;65043;48.392;-4.472;2023-07-31T01:58:02;19.81;81.05
76239;SHT30;65043;48.392;-4.472;2023-07-31T02:00:50;19.76;81.41
76239;SHT30;65043;48.392;-4.472;2023-07-31T02:03:36;19.76;81.32
76239;SHT30;65043;48.392;-4.472;2023-07-31T02:06:24;19.79;81.36
76239;SHT30;65043;48.392;-4.472;2023-07-31T02:09:26;19.75;81.66
76239;SHT30;65043;48.392;-4.472;2023-07-31T02:12:16;19.69;81.84
76239;SHT30;65043;48.392;-4.472;2023-07-31T02:15:04;19.78;81.87
76239;SHT30;65043;48.392;-4.472;2023-07-31T02:18:00;19.81;81.66
76239;SHT30;65043;48.392;-4.472;2023-07-31T02:20:40;19.81;81.78
76239;SHT30;65043;48.392;-4.472;2023-07-31T02:23:28;19.81;81.86
76239;SHT30;65043;48.392;-4.472;2023-07-31T02:26:34;19.82;82.00
76239;SHT30;65043;48.392;-4.472;2023-07-31T02:32:07;19.76;81.86
76239;SHT30;65043;48.392;-4.472;2023-07-31T02:34:48;19.72;82.19
76239;SHT30;65043;48.392;-4.472;2023-07-31T02:37:18;19.68;82.46
76239;SHT30;65043;48.392;-4.472;2023-07-31T02:42:52;19.65;82.76
76239;SHT30;65043;48.392;-4.472;2023-07-31T02:49:27;19.71;82.50
76239;SHT30;65043;48.392;-4.472;2023-07-31T02:52:16;19.71;82.76
76239;SHT30;65043;48.392;-4.472;2023-07-31T02:55:21;19.69;82.63
76239;SHT30;65043;48.392;-4.472;2023-07-31T02:57:49;19.69;82.89
76239;SHT30;65043;48.392;-4.472;2023-07-31T03:00:32;19.68;82.93
76239;SHT30;65043;48.392;-4.472;2023-07-31T03:03:59;19.71;82.78
76239;SHT30;65043;48.392;-4.472;2023-07-31T03:13:18;19.69;82.79
76239;SHT30;65043;48.392;-4.472;2023-07-31T03:18:52;19.65;83.15
76239;SHT30;65043;48.392;-4.472;2023-07-31T03:21:27;19.59;83.18
76239;SHT30;65043;48.392;-4.472;2023-07-31T03:23:53;19.64;83.00
76239;SHT30;65043;48.392;-4.472;2023-07-31T03:26:45;19.61;83.15
76239;SHT30;65043;48.392;-4.472;2023-07-31T03:29:28;19.68;82.91
76239;SHT30;65043;48.392;-4.472;2023-07-31T03:31:59;19.71;82.87
76239;SHT30;65043;48.392;-4.472;2023-07-31T03:34:27;19.71;82.98
76239;SHT30;65043;48.392;-4.472;2023-07-31T03:37:14;19.71;82.71
76239;SHT30;65043;48.392;-4.472;2023-07-31T03:43:21;19.74;82.82
76239;SHT30;65043;48.392;-4.472;2023-07-31T03:46:08;19.74;82.53
76239;SHT30;65043;48.392;-4.472;2023-07-31T03:48:49;19.72;82.56
76239;SHT30;65043;48.392;-4.472;2023-07-31T03:51:24;19.71;82.68
76239;SHT30;65043;48.392;-4.472;2023-07-31T03:53:57;19.72;82.59
76239;SHT30;65043;48.392;-4.472;2023-07-31T03:56:36;19.69;82.64
76239;SHT30;65043;48.392;-4.472;2023-07-31T03:59:06;19.68;82.81
76239;SHT30;65043;48.392;-4.472;2023-07-31T04:01:57;19.69;82.91
76239;SHT30;65043;48.392;-4.472;2023-07-31T04:07:35;19.72;82.87
76239;SHT30;65043;48.392;-4.472;2023-07-31T04:10:08;19.71;82.80
76239;SHT30;65043;48.392;-4.472;2023-07-31T04:15:50;19.68;83.07
76239;SHT30;65043;48.392;-4.472;2023-07-31T04:18:21;19.64;83.11
76239;SHT30;65043;48.392;-4.472;2023-07-31T04:21:07;19.66;83.27
76239;SHT30;65043;48.392;-4.472;2023-07-31T04:23:45;19.68;82.94
76239;SHT30;65043;48.392;-4.472;2023-07-31T04:26:26;19.74;82.94
76239;SHT30;65043;48.392;-4.472;2023-07-31T04:32:12;19.74;83.05
76239;SHT30;65043;48.392;-4.472;2023-07-31T04:34:47;19.69;83.08
76239;SHT30;65043;48.392;-4.472;2023-07-31T04:37:25;19.65;83.27
76239;SHT30;65043;48.392;-4.472;2023-07-31T04:40:21;19.71;83.15
76239;SHT30;65043;48.392;-4.472;2023-07-31T04:43:08;19.76;83.07
76239;SHT30;65043;48.392;-4.472;2023-07-31T04:49:12;19.76;82.98
76239;SHT30;65043;48.392;-4.472;2023-07-31T04:52:05;19.82;82.89
76239;SHT30;65043;48.392;-4.472;2023-07-31T05:04:24;19.81;82.89
76239;SHT30;65043;48.392;-4.472;2023-07-31T05:10:11;19.81;83.18
76239;SHT30;65043;48.392;-4.472;2023-07-31T05:13:17;19.81;82.99
76239;SHT30;65043;48.392;-4.472;2023-07-31T05:16:03;19.82;83.07
76239;SHT30;65043;48.392;-4.472;2023-07-31T05:19:01;19.85;83.11
76239;SHT30;65043;48.392;-4.472;2023-07-31T05:22:09;19.86;83.03
76239;SHT30;65043;48.392;-4.472;2023-07-31T05:25:00;19.81;83.27
76239;SHT30;65043;48.392;-4.472;2023-07-31T05:28:06;19.79;83.17
76239;SHT30;65043;48.392;-4.472;2023-07-31T05:34:14;19.78;83.35
76239;SHT30;65043;48.392;-4.472;2023-07-31T05:40:00;19.74;83.53
76239;SHT30;65043;48.392;-4.472;2023-07-31T05:42:58;19.68;83.51
76239;SHT30;65043;48.392;-4.472;2023-07-31T05:45:31;19.72;83.61
76239;SHT30;65043;48.392;-4.472;2023-07-31T05:48:17;19.69;83.70
76239;SHT30;65043;48.392;-4.472;2023-07-31T05:50:53;19.69;83.54
76239;SHT30;65043;48.392;-4.472;2023-07-31T05:53:38;19.71;83.86
76239;SHT30;65043;48.392;-4.472;2023-07-31T05:56:15;19.78;83.50
76239;SHT30;65043;48.392;-4.472;2023-07-31T05:59:00;19.75;83.49
76239;SHT30;65043;48.392;-4.472;2023-07-31T06:01:46;19.79;83.42
76239;SHT30;65043;48.392;-4.472;2023-07-31T06:04:42;19.78;83.32
76239;SHT30;65043;48.392;-4.472;2023-07-31T06:07:18;19.78;83.46
76239;SHT30;65043;48.392;-4.472;2023-07-31T06:09:53;19.75;83.57
76239;SHT30;65043;48.392;-4.472;2023-07-31T06:12:55;19.78;83.71
76239;SHT30;65043;48.392;-4.472;2023-07-31T06:15:48;19.75;83.91
76239;SHT30;65043;48.392;-4.472;2023-07-31T06:18:35;19.72;84.05
76239;SHT30;65043;48.392;-4.472;2023-07-31T06:22:02;19.72;83.99
76239;SHT30;65043;48.392;-4.472;2023-07-31T06:25:03;19.71;84.11
76239;SHT30;65043;48.392;-4.472;2023-07-31T06:27:51;19.71;84.14
76239;SHT30;65043;48.392;-4.472;2023-07-31T06:30:56;19.69;84.39
76239;SHT30;65043;48.392;-4.472;2023-07-31T06:37:20;19.71;84.53
76239;SHT30;65043;48.392;-4.472;2023-07-31T06:40:11;19.76;84.34
76239;SHT30;65043;48.392;-4.472;2023-07-31T06:42:49;19.76;84.20
76239;SHT30;65043;48.392;-4.472;2023-07-31T06:45:48;19.76;84.41
76239;SHT30;65043;48.392;-4.472;2023-07-31T06:48:45;19.81;84.47
76239;SHT30;65043;48.392;-4.472;2023-07-31T06:51:46;19.86;84.40
76239;SHT30;65043;48.392;-4.472;2023-07-31T06:54:24;19.82;84.36
76239;SHT30;65043;48.392;-4.472;2023-07-31T07:00:36;19.83;84.48
76239;SHT30;65043;48.392;-4.472;2023-07-31T07:06:22;19.85;84.39
76239;SHT30;65043;48.392;-4.472;2023-07-31T07:09:15;19.81;84.51
76239;SHT30;65043;48.392;-4.472;2023-07-31T07:11:43;19.76;84.67
76239;SHT30;65043;48.392;-4.472;2023-07-31T07:14:49;19.75;84.90
76239;SHT30;65043;48.392;-4.472;2023-07-31T07:17:39;19.74;84.91
76239;SHT30;65043;48.392;-4.472;2023-07-31T07:20:50;19.72;84.81
76239;SHT30;65043;48.392;-4.472;2023-07-31T07:27:08;19.68;85.13
76239;SHT30;65043;48.392;-4.472;2023-07-31T07:29:46;19.64;85.05
76239;SHT30;65043;48.392;-4.472;2023-07-31T07:32:12;19.65;85.28
76239;SHT30;65043;48.392;-4.472;2023-07-31T07:34:59;19.72;84.89
76239;SHT30;65043;48.392;-4.472;2023-07-31T07:37:41;19.69;85.07
76239;SHT30;65043;48.392;-4.472;2023-07-31T07:40:21;19.68;84.92
76239;SHT30;65043;48.392;-4.472;2023-07-31T07:43:13;19.66;85.03
76239;SHT30;65043;48.392;-4.472;2023-07-31T07:49:37;19.62;85.22
76239;SHT30;65043;48.392;-4.472;2023-07-31T07:52:06;19.68;85.16
76239;SHT30;65043;48.392;-4.472;2023-07-31T07:54:58;19.69;85.18
76239;SHT30;65043;48.392;-4.472;2023-07-31T07:57:47;19.68;85.22
76239;SHT30;65043;48.392;-4.472;2023-07-31T08:10:25;19.64;85.45
76239;SHT30;65043;48.392;-4.472;2023-07-31T08:13:37;19.65;85.50
76239;SHT30;65043;48.392;-4.472;2023-07-31T08:26:48;19.66;85.78
76239;SHT30;65043;48.392;-4.472;2023-07-31T08:32:34;19.66;85.78
76239;SHT30;65043;48.392;-4.472;2023-07-31T08:35:29;19.68;85.62
76239;SHT30;65043;48.392;-4.472;2023-07-31T08:38:36;19.69;85.56
76239;SHT30;65043;48.392;-4.472;2023-07-31T08:41:05;19.69;85.57
76239;SHT30;65043;48.392;-4.472;2023-07-31T08:43:30;19.69;85.67
76239;SHT30;65043;48.392;-4.472;2023-07-31T08:45:59;19.68;85.77
76239;SHT30;65043;48.392;-4.472;2023-07-31T08:48:33;19.69;85.62
76239;SHT30;65043;48.392;-4.472;2023-07-31T09:10:50;19.76;85.78
76239;SHT30;65043;48.392;-4.472;2023-07-31T09:19:56;19.75;85.92
76239;SHT30;65043;48.392;-4.472;2023-07-31T09:22:46;19.78;85.82
76239;SHT30;65043;48.392;-4.472;2023-07-31T09:25:18;19.79;85.73
76239;SHT30;65043;48.392;-4.472;2023-07-31T09:31:15;19.82;85.98
76239;SHT30;65043;48.392;-4.472;2023-07-31T09:34:16;19.88;85.88
76239;SHT30;65043;48.392;-4.472;2023-07-31T09:40:08;19.90;85.72
76239;SHT30;65043;48.392;-4.472;2023-07-31T09:42:51;19.89;85.70
76239;SHT30;65043;48.392;-4.472;2023-07-31T09:45:47;19.90;85.58
76239;SHT30;65043;48.392;-4.472;2023-07-31T09:48:41;19.93;85.64
76239;SHT30;65043;48.392;-4.472;2023-07-31T09:54:03;19.97;85.38
76239;SHT30;65043;48.392;-4.472;2023-07-31T09:56:52;19.95;85.64
76239;SHT30;65043;48.392;-4.472;2023-07-31T09:59:34;19.96;85.66
76239;SHT30;65043;48.392;-4.472;2023-07-31T10:02:41;19.95;85.62
76239;SHT30;65043;48.392;-4.472;2023-07-31T10:05:37;19.97;85.76
76239;SHT30;65043;48.392;-4.472;2023-07-31T10:08:07;19.96;85.72
76239;SHT30;65043;48.392;-4.472;2023-07-31T10:10:36;19.95;85.91
76239;SHT30;65043;48.392;-4.472;2023-07-31T10:13:04;20.00;85.71
76239;SHT30;65043;48.392;-4.472;2023-07-31T10:15:31;20.03;85.76
76239;SHT30;65043;48.392;-4.472;2023-07-31T10:18:00;20.00;85.74
76239;SHT30;65043;48.392;-4.472;2023-07-31T10:20:34;20.03;85.76
76239;SHT30;65043;48.392;-4.472;2023-07-31T10:23:13;20.00;85.80
76239;SHT30;65043;48.392;-4.472;2023-07-31T10:25:48;20.02;85.80
76239;SHT30;65043;48.392;-4.472;2023-07-31T10:28:29;20.00;85.77
76239;SHT30;65043;48.392;-4.472;2023-07-31T10:30:57;20.00;85.95
76239;SHT30;65043;48.392;-4.472;2023-07-31T10:33:23;20.06;85.78
76239;SHT30;65043;48.392;-4.472;2023-07-31T10:36:12;20.09;85.70
76239;SHT30;65043;48.392;-4.472;2023-07-31T10:38:46;20.05;85.65
76239;SHT30;65043;48.392;-4.472;2023-07-31T10:41:14;20.00;85.87
76239;SHT30;65043;48.392;-4.472;2023-07-31T10:43:40;20.00;85.83
76239;SHT30;65043;48.392;-4.472;2023-07-31T10:46:13;19.97;85.90
76239;SHT30;65043;48.392;-4.472;2023-07-31T10:48:40;20.05;85.93
76239;SHT30;65043;48.392;-4.472;2023-07-31T10:51:11;20.03;85.97
76239;SHT30;65043;48.392;-4.472;2023-07-31T10:53:38;20.03;86.07
76239;SHT30;65043;48.392;-4.472;2023-07-31T10:56:25;20.00;85.85
76239;SHT30;65043;48.392;-4.472;2023-07-31T10:59:01;20.05;85.66
76239;SHT30;65043;48.392;-4.472;2023-07-31T11:01:55;20.10;85.73
76239;SHT30;65043;48.392;-4.472;2023-07-31T11:04:26;20.09;85.48
76239;SHT30;65043;48.392;-4.472;2023-07-31T11:07:01;20.02;85.60
76239;SHT30;65043;48.392;-4.472;2023-07-31T11:09:31;20.02;85.66
76239;SHT30;65043;48.392;-4.472;2023-07-31T11:15:37;19.97;85.65
76239;SHT30;65043;48.392;-4.472;2023-07-31T11:32:48;19.85;85.82
76239;SHT30;65043;48.392;-4.472;2023-07-31T11:35:52;19.89;85.74
76239;SHT30;65043;48.392;-4.472;2023-07-31T11:45:17;19.85;85.76
76239;SHT30;65043;48.392;-4.472;2023-07-31T11:55:38;19.82;86.03
76239;SHT30;65043;48.392;-4.472;2023-07-31T12:05:38;19.86;86.16
76239;SHT30;65043;48.392;-4.472;2023-07-31T12:35:34;19.89;85.93
76239;SHT30;65043;48.392;-4.472;2023-07-31T12:42:00;19.85;86.02
76239;SHT30;65043;48.392;-4.472;2023-07-31T12:51:13;19.83;86.28
76239;SHT30;65043;48.392;-4.472;2023-07-31T12:54:08;19.86;86.14
76239;SHT30;65043;48.392;-4.472;2023-07-31T12:56:57;19.89;86.22
76239;SHT30;65043;48.392;-4.472;2023-07-31T13:03:43;19.93;86.19
76239;SHT30;65043;48.392;-4.472;2023-07-31T13:07:04;19.93;86.38
76239;SHT30;65043;48.392;-4.472;2023-07-31T13:10:15;19.92;86.36
76239;SHT30;65043;48.392;-4.472;2023-07-31T13:13:21;19.92;86.28
76239;SHT30;65043;48.392;-4.472;2023-07-31T13:16:20;19.89;86.36
76239;SHT30;65043;48.392;-4.472;2023-07-31T13:19:33;19.89;86.31
76239;SHT30;65043;48.392;-4.472;2023-07-31T13:28:56;19.85;86.43
76239;SHT30;65043;48.392;-4.472;2023-07-31T13:32:18;19.86;86.56
76239;SHT30;65043;48.392;-4.472;2023-07-31T13:38:02;19.83;86.60
76239;SHT30;65043;48.392;-4.472;2023-07-31T13:40:43;19.86;86.53
76239;SHT30;65043;48.392;-4.472;2023-07-31T13:43:31;19.86;86.72
76239;SHT30;65043;48.392;-4.472;2023-07-31T13:46:09;19.83;86.85
76239;SHT30;65043;48.392;-4.472;2023-07-31T13:48:57;19.82;86.86
76239;SHT30;65043;48.392;-4.472;2023-07-31T13:51:33;19.86;86.76
76239;SHT30;65043;48.392;-4.472;2023-07-31T13:54:04;19.88;86.87
76239;SHT30;65043;48.392;-4.472;2023-07-31T13:56:53;19.93;86.80
76239;SHT30;65043;48.392;-4.472;2023-07-31T13:59:41;19.93;86.55
76239;SHT30;65043;48.392;-4.472;2023-07-31T14:05:51;19.95;86.62
76239;SHT30;65043;48.392;-4.472;2023-07-31T14:08:24;19.99;86.58
76239;SHT30;65043;48.392;-4.472;2023-07-31T14:10:52;20.00;86.63
76239;SHT30;65043;48.392;-4.472;2023-07-31T14:13:17;20.02;86.72
76239;SHT30;65043;48.392;-4.472;2023-07-31T14:15:43;20.05;86.68
76239;SHT30;65043;48.392;-4.472;2023-07-31T14:18:09;20.03;86.37
76239;SHT30;65043;48.392;-4.472;2023-07-31T14:21:07;20.02;86.43
76239;SHT30;65043;48.392;-4.472;2023-07-31T14:23:35;20.03;86.43
76239;SHT30;65043;48.392;-4.472;2023-07-31T14:26:06;20.02;86.31
76239;SHT30;65043;48.392;-4.472;2023-07-31T14:32:33;20.00;86.45
76239;SHT30;65043;48.392;-4.472;2023-07-31T14:35:17;19.99;86.43
76239;SHT30;65043;48.392;-4.472;2023-07-31T14:37:45;20.02;86.37
76239;SHT30;65043;48.392;-4.472;2023-07-31T14:40:16;19.97;86.45
76239;SHT30;65043;48.392;-4.472;2023-07-31T14:43:01;19.96;86.41
76239;SHT30;65043;48.392;-4.472;2023-07-31T14:45:58;19.99;86.72
76239;SHT30;65043;48.392;-4.472;2023-07-31T15:02:06;19.99;86.48
76239;SHT30;65043;48.392;-4.472;2023-07-31T15:04:51;19.97;86.51
76239;SHT30;65043;48.392;-4.472;2023-07-31T15:07:45;19.99;86.57
76239;SHT30;65043;48.392;-4.472;2023-07-31T15:10:21;20.00;86.39
76239;SHT30;65043;48.392;-4.472;2023-07-31T15:15:56;19.97;86.47
76239;SHT30;65043;48.392;-4.472;2023-07-31T15:39:44;20.08;86.02
76239;SHT30;65043;48.392;-4.472;2023-07-31T15:45:46;19.99;86.34
76239;SHT30;65043;48.392;-4.472;2023-07-31T15:48:25;19.99;86.32
76239;SHT30;65043;48.392;-4.472;2023-07-31T15:51:28;20.06;86.37
76239;SHT30;65043;48.392;-4.472;2023-07-31T15:54:35;20.05;86.24
76239;SHT30;65043;48.392;-4.472;2023-07-31T16:00:34;20.03;86.09
76239;SHT30;65043;48.392;-4.472;2023-07-31T16:06:24;20.06;86.16
76239;SHT30;65043;48.392;-4.472;2023-07-31T16:09:29;20.08;85.85
76239;SHT30;65043;48.392;-4.472;2023-07-31T16:12:24;20.06;85.94
76239;SHT30;65043;48.392;-4.472;2023-07-31T16:36:22;20.02;85.98
76239;SHT30;65043;48.392;-4.472;2023-07-31T16:53:29;19.96;86.19
76239;SHT30;65043;48.392;-4.472;2023-07-31T17:39:48;20.10;85.86
76239;SHT30;65043;48.392;-4.472;2023-07-31T17:46:04;20.10;85.77
76239;SHT30;65043;48.392;-4.472;2023-07-31T17:52:19;20.09;86.18
76239;SHT30;65043;48.392;-4.472;2023-07-31T17:55:12;20.08;86.16
76239;SHT30;65043;48.392;-4.472;2023-07-31T17:57:49;20.10;86.13
76239;SHT30;65043;48.392;-4.472;2023-07-31T18:00:20;20.15;85.87
76239;SHT30;65043;48.392;-4.472;2023-07-31T18:05:36;20.17;85.86
76239;SHT30;65043;48.392;-4.472;2023-07-31T18:08:07;20.13;85.82
76239;SHT30;65043;48.392;-4.472;2023-07-31T18:10:32;20.13;86.00
76239;SHT30;65043;48.392;-4.472;2023-07-31T18:13:08;20.19;85.80
76239;SHT30;65043;48.392;-4.472;2023-07-31T18:15:36;20.15;85.98
76239;SHT30;65043;48.392;-4.472;2023-07-31T18:18:02;20.19;85.82
76239;SHT30;65043;48.392;-4.472;2023-07-31T18:20:37;20.20;85.96
76239;SHT30;65043;48.392;-4.472;2023-07-31T18:23:02;20.17;85.87
76239;SHT30;65043;48.392;-4.472;2023-07-31T18:25:28;20.19;85.95
76239;SHT30;65043;48.392;-4.472;2023-07-31T18:27:56;20.25;85.69
76239;SHT30;65043;48.392;-4.472;2023-07-31T18:34:04;20.30;85.27
76239;SHT30;65043;48.392;-4.472;2023-07-31T18:37:00;20.27;85.44
76239;SHT30;65043;48.392;-4.472;2023-07-31T18:39:36;20.29;85.35
76239;SHT30;65043;48.392;-4.472;2023-07-31T18:45:33;20.30;85.35
76239;SHT30;65043;48.392;-4.472;2023-07-31T18:51:25;20.32;85.29
76239;SHT30;65043;48.392;-4.472;2023-07-31T18:58:20;20.33;85.19
76239;SHT30;65043;48.392;-4.472;2023-07-31T19:07:54;20.37;84.89
76239;SHT30;65043;48.392;-4.472;2023-07-31T19:14:07;20.32;85.10
76239;SHT30;65043;48.392;-4.472;2023-07-31T19:31:45;20.09;84.36
76239;SHT30;65043;48.392;-4.472;2023-07-31T19:34:54;20.08;84.00
76239;SHT30;65043;48.392;-4.472;2023-07-31T19:37:57;20.02;83.65
76239;SHT30;65043;48.392;-4.472;2023-07-31T19:40:57;19.99;83.97
76239;SHT30;65043;48.392;-4.472;2023-07-31T19:44:07;19.99;83.91
76239;SHT30;65043;48.392;-4.472;2023-07-31T19:57:23;19.92;83.09
76239;SHT30;65043;48.392;-4.472;2023-07-31T20:00:35;19.86;82.96
76239;SHT30;65043;48.392;-4.472;2023-07-31T20:03:44;19.86;83.16
76239;SHT30;65043;48.392;-4.472;2023-07-31T20:06:31;19.83;82.89
76239;SHT30;65043;48.392;-4.472;2023-07-31T20:09:16;19.85;82.87
76239;SHT30;65043;48.392;-4.472;2023-07-31T20:25:13;19.81;82.69
76239;SHT30;65043;48.392;-4.472;2023-07-31T20:27:41;19.83;82.65
76239;SHT30;65043;48.392;-4.472;2023-07-31T20:30:09;19.82;82.63
76239;SHT30;65043;48.392;-4.472;2023-07-31T20:32:35;19.83;82.26
76239;SHT30;65043;48.392;-4.472;2023-07-31T20:35:14;19.86;82.32
76239;SHT30;65043;48.392;-4.472;2023-07-31T20:37:45;19.83;82.16
76239;SHT30;65043;48.392;-4.472;2023-07-31T20:43:40;19.83;81.98
76239;SHT30;65043;48.392;-4.472;2023-07-31T20:46:52;19.83;82.24
76239;SHT30;65043;48.392;-4.472;2023-07-31T20:49:51;19.81;82.00
76239;SHT30;65043;48.392;-4.472;2023-07-31T20:52:38;19.79;82.03
76239;SHT30;65043;48.392;-4.472;2023-07-31T20:55:27;19.75;82.13
76239;SHT30;65043;48.392;-4.472;2023-07-31T20:58:18;19.76;82.09
76239;SHT30;65043;48.392;-4.472;2023-07-31T21:01:19;19.75;82.06
76239;SHT30;65043;48.392;-4.472;2023-07-31T21:04:04;19.72;81.84
76239;SHT30;65043;48.392;-4.472;2023-07-31T21:06:36;19.72;82.10
76239;SHT30;65043;48.392;-4.472;2023-07-31T21:12:16;19.66;81.79
76239;SHT30;65043;48.392;-4.472;2023-07-31T21:15:19;19.66;81.82
76239;SHT30;65043;48.392;-4.472;2023-07-31T21:18:06;19.66;81.72
76239;SHT30;65043;48.392;-4.472;2023-07-31T21:20:48;19.65;81.84
76239;SHT30;65043;48.392;-4.472;2023-07-31T21:26:40;19.59;81.59
76239;SHT30;65043;48.392;-4.472;2023-07-31T21:32:31;19.59;81.32
76239;SHT30;65043;48.392;-4.472;2023-07-31T21:42:05;19.55;81.02
76239;SHT30;65043;48.392;-4.472;2023-07-31T21:44:57;19.51;81.07
76239;SHT30;65043;48.392;-4.472;2023-07-31T21:47:42;19.53;81.06
76239;SHT30;65043;48.392;-4.472;2023-07-31T21:50:23;19.53;80.92
76239;SHT30;65043;48.392;-4.472;2023-07-31T21:53:16;19.53;80.46
76239;SHT30;65043;48.392;-4.472;2023-07-31T21:55:54;19.50;80.49
76239;SHT30;65043;48.392;-4.472;2023-07-31T21:58:25;19.51;80.54
76239;SHT30;65043;48.392;-4.472;2023-07-31T22:01:13;19.48;80.59
76239;SHT30;65043;48.392;-4.472;2023-07-31T22:25:42;19.32;79.85
76239;SHT30;65043;48.392;-4.472;2023-07-31T22:45:23;19.28;79.61
76239;SHT30;65043;48.392;-4.472;2023-07-31T23:02:30;19.24;79.75
76239;SHT30;65043;48.392;-4.472;2023-07-31T23:09:19;19.21;79.56
76239;SHT30;65043;48.392;-4.472;2023-07-31T23:11:49;19.20;79.75
76239;SHT30;65043;48.392;-4.472;2023-07-31T23:14:40;19.18;79.76
76239;SHT30;65043;48.392;-4.472;2023-07-31T23:20:54;19.16;79.80
76239;SHT30;65043;48.392;-4.472;2023-07-31T23:34:11;19.14;79.59
76239;SHT30;65043;48.392;-4.472;2023-07-31T23:47:18;19.06;79.33
76239;SHT30;65043;48.392;-4.472;2023-07-31T23:56:42;19.00;79.54
